Terminal Aerodrome Forecast
Issued by NWS Bismarck, ND

Home | Current Version | Previous Version | Text Only | Print | Product List | Glossary On
Versions: 1 2 3 4 5 6 7 8 9 10 11 12 13 14 15 16 17 18 19
626
FTUS43 KBIS 172323
TAFISN
TAF
KISN 172323Z 1800/1824 29009KT P6SM SCT090
     FM180200 08004KT P6SM OVC090
     FM180600 07009KT 1SM -SN OVC025
     FM180900 06013G21KT 1/2SM SN BLSN OVC020
     FM181800 01010KT P6SM VCSH OVC020=

USA.gov is the U.S. government's official web portal to all federal, state and local government web resources and services.